This is the latest recevied weather packets stored in our database for station/object KY4GW. If no packets are shown the sender has not sent any weather packets the latest 10 day(s).
| Time | Temp. | Humidity | Pressure | Rain* | Wind** | Luminosity | Snow |
|---|---|---|---|---|---|---|---|
| 1777727848 | 8.33° C | 61% | 1020.7 hPa | 0 mm | - | 360 W/m² | - |
| 1777727545 | 8.33° C | 63% | 1020.7 hPa | 0 mm | - | 306 W/m² | - |
| 1777727242 | 7.78° C | 63% | 1020.7 hPa | 0 mm | - | 228 W/m² | - |
| 1777726940 | 8.33° C | 62% | 1020.7 hPa | 0 mm | - | 264 W/m² | - |
| 1777726636 | 7.78° C | 66% | 1020.4 hPa | 0 mm | - | 228 W/m² | - |
| 1777725426 | 7.22° C | 71% | 1020.1 hPa | 0 mm | - | 124 W/m² | - |
| 1777724819 | 6.67° C | 72% | 1020.4 hPa | 0 mm | - | 127 W/m² | - |
| 1777724214 | 5.56° C | 78% | 1020.4 hPa | 0 mm | - | 89 W/m² | - |
| 1777723911 | 5.56° C | 77% | 1020.4 hPa | 0 mm | - | 70 W/m² | - |
| 1777723304 | 5° C | 79% | 1020.4 hPa | 0 mm | - | 82 W/m² | - |
| 1777722697 | 5° C | 79% | 1020.4 hPa | 0 mm | - | 61 W/m² | - |
| 1777722393 | 5° C | 80% | 1020.4 hPa | 0 mm | - | 48 W/m² | - |
| 1777722091 | 4.44° C | 81% | 1020.1 hPa | 0 mm | - | 46 W/m² | - |
| 1777721788 | 4.44° C | 82% | 1020.1 hPa | 0 mm | - | 42 W/m² | - |
| 1777721487 | 3.89° C | 83% | 1020.1 hPa | 0 mm | - | 43 W/m² | - |
| 1777721184 | 3.89° C | 84% | 1020.1 hPa | 0 mm | - | 40 W/m² | - |
| 1777720882 | 3.33° C | 86% | 1020.1 hPa | 0 mm | - | 34 W/m² | - |
| 1777720579 | 3.33° C | 87% | 1020.1 hPa | 0 mm | - | 30 W/m² | - |
| 1777720276 | 3.33° C | 87% | 1020.1 hPa | 0 mm | - | 22 W/m² | - |
| 1777719974 | 3.33° C | 87% | 1020.1 hPa | 0 mm | - | 18 W/m² | - |
| 1777719671 | 3.33° C | 87% | 1020.1 hPa | 0 mm | - | 13 W/m² | - |
| 1777719369 | 3.33° C | 87% | 1019.6 hPa | 0 mm | - | 8 W/m² | - |
| 1777719066 | 3.33° C | 87% | 1019.6 hPa | 0 mm | - | 6 W/m² | - |
| 1777718763 | 3.33° C | 88% | 1020.1 hPa | 0 mm | - | 3 W/m² | - |
| 1777718460 | 2.78° C | 89% | 1020.1 hPa | 0 mm | - | 2 W/m² | - |
* Rain latest hour (hover to see other rain measurements)
** Current wind speed in m/s (hover to see current wind gust speed)